Aérodrome :
LOGIN :

S'inscrire | Disclaimer

   EN    FR    IT 

 










Légende :    VFR   VFR Marginal   IFR   IFR Intensif   IFR Très Intensif
Visi : 
Plafond : 
>= 8 km
>= 3000ft
5 à 8 km
1000 à 3000 ft
1500m à 5 km
500 à 1000 ft
800 à 1500m
200 à 500 ft
< 800m
< 200 ft
Symboles :   Orages  Brouillard  Fortes neiges  Fortes précipitations  Vent > 20 kt
SIGMETs :   Divers  Orages  Givrage  Turbulence  Onde Orograph.  Cendres Volcan.






- Altitude de l'aérodrome : 782 ft
- Code IATA : BGY


LIME - Orio al Serio International - Bergamo

DERNIER METAR :
  • 261720Z 31011G22KT CAVOK 10/M19 Q1000 NOSIG

METARs EXPIRÉS :
  • 261650Z 30011G21KT CAVOK 11/M19 Q0999 NOSIG
  • 261620Z 32010KT 290V350 CAVOK 12/M20 Q0998 NOSIG
  • 261550Z 32015G26KT 290V350 CAVOK 12/M21 Q0997 NOSIG
  • 261520Z 32015G25KT 290V360 CAVOK 12/M21 Q0997 NOSIG
  • 261450Z 32015KT 290V350 9999 FEW050 12/M18 Q0997 NOSIG
  • 261420Z 33013KT 300V360 9999 FEW050 13/M15 Q0997 NOSIG

TAF AMD TAF LIME
Valide du 26 à 12h jusqu'au 27 à 12h UTC


261244Z 2612/2712 31010KT CAVOK
TEMPO 2612/2620 31018G35KT



MET'MAP, la Météo Aéronautique d'un coup d'oeil ! - Copyright ORBIFLY Décembre 2007 - Disclaimer

ORBIFLY MET'MAP TEAM :

Programmation & Développement : Alexandra Zaïnal
Sur une idée originale de : Baudouin d'Aumeries
Assistance à la programmation : Marc-Olivier Méhu
Soutien technique & logistique : Manuel Goepfert

Contact : metmap@orbifly.com




SOURCES & CREDITS :

   NOAA